Aviation Digital Data Service (ADDS)

Output produced by TAFs form (2157 UTC 30 September 2016)
found at http://aviationweather.gov/adds/tafs/
 
KROW 301720Z 3018/0118 18012G20KT P6SM BKN120 
     FM010100 19008KT P6SM SCT120 
     FM011200 VRB04KT P6SM SCT120